sensor_id;sensor_type;location;lat;lon;timestamp;P1;durP1;ratioP1;P2;durP2;ratioP2
22746;SDS011;11540;52.130;5.648;2022-09-03T00:02:21;5.45;;;1.70;;
22746;SDS011;11540;52.130;5.648;2022-09-03T00:05:17;2.88;;;1.70;;
22746;SDS011;11540;52.130;5.648;2022-09-03T00:10:27;2.08;;;1.70;;
22746;SDS011;11540;52.130;5.648;2022-09-03T00:13:00;3.47;;;1.60;;
22746;SDS011;11540;52.130;5.648;2022-09-03T00:15:29;3.30;;;1.75;;
22746;SDS011;11540;52.130;5.648;2022-09-03T00:17:59;2.58;;;1.90;;
22746;SDS011;11540;52.130;5.648;2022-09-03T00:20:53;3.60;;;1.63;;
22746;SDS011;11540;52.130;5.648;2022-09-03T00:23:22;5.85;;;1.63;;
22746;SDS011;11540;52.130;5.648;2022-09-03T00:33:43;2.65;;;1.60;;
22746;SDS011;11540;52.130;5.648;2022-09-03T00:36:14;4.45;;;1.75;;
22746;SDS011;11540;52.130;5.648;2022-09-03T00:38:44;2.80;;;1.60;;
22746;SDS011;11540;52.130;5.648;2022-09-03T00:41:16;4.70;;;1.77;;
22746;SDS011;11540;52.130;5.648;2022-09-03T00:47:02;2.55;;;1.60;;
22746;SDS011;11540;52.130;5.648;2022-09-03T00:55:02;2.60;;;1.60;;
22746;SDS011;11540;52.130;5.648;2022-09-03T01:00:11;3.95;;;1.60;;
22746;SDS011;11540;52.130;5.648;2022-09-03T01:05:41;6.20;;;1.88;;
22746;SDS011;11540;52.130;5.648;2022-09-03T01:10:56;4.72;;;1.83;;
22746;SDS011;11540;52.130;5.648;2022-09-03T01:13:46;4.38;;;1.60;;
22746;SDS011;11540;52.130;5.648;2022-09-03T01:24:26;2.28;;;1.55;;
22746;SDS011;11540;52.130;5.648;2022-09-03T01:27:31;2.67;;;1.55;;
22746;SDS011;11540;52.130;5.648;2022-09-03T01:30:20;2.33;;;1.35;;
22746;SDS011;11540;52.130;5.648;2022-09-03T01:33:06;3.95;;;1.67;;
22746;SDS011;11540;52.130;5.648;2022-09-03T01:38:26;7.97;;;1.90;;
22746;SDS011;11540;52.130;5.648;2022-09-03T01:44:54;2.75;;;1.85;;
22746;SDS011;11540;52.130;5.648;2022-09-03T01:50:42;1.70;;;1.50;;
22746;SDS011;11540;52.130;5.648;2022-09-03T01:53:27;4.25;;;1.75;;
22746;SDS011;11540;52.130;5.648;2022-09-03T01:59:26;3.15;;;1.60;;
22746;SDS011;11540;52.130;5.648;2022-09-03T02:05:03;5.35;;;1.55;;
22746;SDS011;11540;52.130;5.648;2022-09-03T02:07:33;2.53;;;1.65;;
22746;SDS011;11540;52.130;5.648;2022-09-03T02:10:05;5.97;;;1.45;;
22746;SDS011;11540;52.130;5.648;2022-09-03T02:12:32;7.43;;;1.92;;
22746;SDS011;11540;52.130;5.648;2022-09-03T02:15:03;3.58;;;1.52;;
22746;SDS011;11540;52.130;5.648;2022-09-03T02:17:36;3.53;;;1.63;;
22746;SDS011;11540;52.130;5.648;2022-09-03T02:20:05;3.38;;;1.58;;
22746;SDS011;11540;52.130;5.648;2022-09-03T02:22:35;2.55;;;1.58;;
22746;SDS011;11540;52.130;5.648;2022-09-03T02:25:03;2.38;;;1.80;;
22746;SDS011;11540;52.130;5.648;2022-09-03T02:27:29;3.28;;;1.80;;
22746;SDS011;11540;52.130;5.648;2022-09-03T02:29:56;3.97;;;1.98;;
22746;SDS011;11540;52.130;5.648;2022-09-03T02:32:22;2.55;;;1.50;;
22746;SDS011;11540;52.130;5.648;2022-09-03T02:34:48;4.53;;;1.55;;
22746;SDS011;11540;52.130;5.648;2022-09-03T02:37:14;3.80;;;1.70;;
22746;SDS011;11540;52.130;5.648;2022-09-03T02:39:41;2.13;;;1.55;;
22746;SDS011;11540;52.130;5.648;2022-09-03T02:42:07;6.40;;;1.77;;
22746;SDS011;11540;52.130;5.648;2022-09-03T02:44:35;7.25;;;1.77;;
22746;SDS011;11540;52.130;5.648;2022-09-03T02:47:27;1.70;;;1.60;;
22746;SDS011;11540;52.130;5.648;2022-09-03T02:49:57;2.45;;;1.38;;
22746;SDS011;11540;52.130;5.648;2022-09-03T02:52:22;2.72;;;1.60;;
22746;SDS011;11540;52.130;5.648;2022-09-03T02:54:48;3.17;;;1.42;;
22746;SDS011;11540;52.130;5.648;2022-09-03T02:57:14;1.98;;;1.40;;
22746;SDS011;11540;52.130;5.648;2022-09-03T02:59:41;2.88;;;1.63;;
22746;SDS011;11540;52.130;5.648;2022-09-03T03:02:08;2.45;;;1.67;;
22746;SDS011;11540;52.130;5.648;2022-09-03T03:04:35;1.70;;;1.60;;
22746;SDS011;11540;52.130;5.648;2022-09-03T03:07:01;2.13;;;1.30;;
22746;SDS011;11540;52.130;5.648;2022-09-03T03:09:26;5.20;;;1.50;;
22746;SDS011;11540;52.130;5.648;2022-09-03T03:11:52;3.35;;;1.48;;
22746;SDS011;11540;52.130;5.648;2022-09-03T03:14:19;4.38;;;1.90;;
22746;SDS011;11540;52.130;5.648;2022-09-03T03:16:46;9.32;;;1.67;;
22746;SDS011;11540;52.130;5.648;2022-09-03T03:19:12;1.70;;;1.60;;
22746;SDS011;11540;52.130;5.648;2022-09-03T03:21:37;3.42;;;1.77;;
22746;SDS011;11540;52.130;5.648;2022-09-03T03:24:03;2.22;;;1.58;;
22746;SDS011;11540;52.130;5.648;2022-09-03T03:26:29;2.72;;;1.50;;
22746;SDS011;11540;52.130;5.648;2022-09-03T03:28:55;5.03;;;1.80;;
22746;SDS011;11540;52.130;5.648;2022-09-03T10:14:39;3.70;;;1.30;;
22746;SDS011;11540;52.130;5.648;2022-09-03T10:17:19;2.78;;;1.15;;
22746;SDS011;11540;52.130;5.648;2022-09-03T10:59:29;2.17;;;1.20;;
22746;SDS011;11540;52.130;5.648;2022-09-03T11:05:11;1.25;;;1.08;;
22746;SDS011;11540;52.130;5.648;2022-09-03T17:26:09;7.85;;;2.35;;
22746;SDS011;11540;52.130;5.648;2022-09-03T17:28:46;4.40;;;2.10;;
22746;SDS011;11540;52.130;5.648;2022-09-03T17:31:32;9.07;;;2.00;;
22746;SDS011;11540;52.130;5.648;2022-09-03T17:34:10;3.63;;;2.10;;
22746;SDS011;11540;52.130;5.648;2022-09-03T17:42:59;8.70;;;2.20;;
22746;SDS011;11540;52.130;5.648;2022-09-03T17:45:39;2.67;;;2.00;;
22746;SDS011;11540;52.130;5.648;2022-09-03T17:50:56;6.22;;;2.35;;
22746;SDS011;11540;52.130;5.648;2022-09-03T17:53:39;7.85;;;2.50;;
22746;SDS011;11540;52.130;5.648;2022-09-03T17:56:22;9.43;;;2.30;;
22746;SDS011;11540;52.130;5.648;2022-09-03T17:59:01;3.92;;;2.35;;
22746;SDS011;11540;52.130;5.648;2022-09-03T18:01:57;4.47;;;2.90;;
22746;SDS011;11540;52.130;5.648;2022-09-03T18:05:18;4.47;;;2.75;;
22746;SDS011;11540;52.130;5.648;2022-09-03T18:10:06;7.65;;;3.33;;
22746;SDS011;11540;52.130;5.648;2022-09-03T18:15:19;9.80;;;3.35;;
22746;SDS011;11540;52.130;5.648;2022-09-03T18:18:03;3.53;;;3.22;;
22746;SDS011;11540;52.130;5.648;2022-09-03T18:20:44;8.90;;;3.33;;
22746;SDS011;11540;52.130;5.648;2022-09-03T18:23:38;8.27;;;3.70;;
22746;SDS011;11540;52.130;5.648;2022-09-03T18:46:58;13.95;;;3.70;;
22746;SDS011;11540;52.130;5.648;2022-09-03T18:52:55;7.50;;;4.10;;
22746;SDS011;11540;52.130;5.648;2022-09-03T19:22:12;16.50;;;6.30;;
22746;SDS011;11540;52.130;5.648;2022-09-03T19:25:11;18.25;;;5.80;;
